Meteorología y climatología de Navarra
Datos de la estación - Meteo Navarra

Estación de Yesa GN

Altitud 487 m.


Datos desde el 15/02/2020 hasta el 16/02/2020 en horario solar
Los datos son PROVISIONALES

Anterior Página 1 de 1 Siguiente Descargar: Formato para Excel 2000 o superior   Formato csv   Formato para OpenOffice Calc
Fecha Temperatura Humedad relativa Radiación global Insolación Precipitación Vel. viento 10 m Vel. viento 10 m Dir. viento 10 m
ºC % W/m² s l/m² m/s km/h º
15/02/2020 0:00 6.1 87 0.0 0 0.0 2.1 7.5 110
15/02/2020 0:10 5.9 87 0.0 0 0.0 2.8 10.0 110
15/02/2020 0:20 5.9 88 0.0 0 0.0 3.6 12.9 108
15/02/2020 0:30 5.9 88 0.0 0 0.0 3.7 13.4 106
15/02/2020 0:40 5.8 88 0.0 0 0.0 4.2 15.3 106
15/02/2020 0:50 5.8 88 0.0 0 0.0 5.0 17.8 105
15/02/2020 1:00 5.7 88 0.0 0 0.0 5.0 17.8 107
15/02/2020 1:10 5.8 87 0.0 0 0.0 4.3 15.6 111
15/02/2020 1:20 5.9 87 0.0 0 0.0 4.5 16.1 105
15/02/2020 1:30 5.8 86 0.0 0 0.0 4.3 15.4 103
15/02/2020 1:40 6.1 85 0.0 0 0.0 4.9 17.6 104
15/02/2020 1:50 6.3 84 0.0 0 0.0 4.0 14.5 102
15/02/2020 2:00 6.2 83 0.0 0 0.0 4.9 17.6 105
15/02/2020 2:10 6.1 83 0.0 0 0.0 5.4 19.4 108
15/02/2020 2:20 6.0 84 0.0 0 0.0 4.3 15.3 115
15/02/2020 2:30 5.8 84 0.0 0 0.0 4.0 14.5 111
15/02/2020 2:40 5.7 86 0.0 0 0.0 3.9 14.2 110
15/02/2020 2:50 5.4 87 0.0 0 0.0 4.3 15.6 110
15/02/2020 3:00 5.2 89 0.0 0 0.0 4.8 17.4 108
15/02/2020 3:10 5.1 90 0.0 0 0.0 5.2 18.6 106
15/02/2020 3:20 5.0 90 0.0 0 0.0 5.5 19.8 112
15/02/2020 3:30 5.2 88 0.0 0 0.0 4.3 15.6 105
15/02/2020 3:40 5.5 85 0.0 0 0.0 6.0 21.5 105
15/02/2020 3:50 5.4 85 0.0 0 0.0 4.8 17.2 106
15/02/2020 4:00 5.4 86 0.0 0 0.0 4.9 17.5 108
15/02/2020 4:10 5.4 85 0.0 0 0.0 5.2 18.9 106
15/02/2020 4:20 5.3 86 0.0 0 0.0 4.9 17.6 108
15/02/2020 4:30 5.3 85 0.0 0 0.0 4.8 17.4 106
15/02/2020 4:40 5.2 86 0.0 0 0.0 4.5 16.2 105
15/02/2020 4:50 5.4 85 0.0 0 0.0 5.6 20.2 101
15/02/2020 5:00 5.4 84 0.0 0 0.0 6.1 21.9 99
15/02/2020 5:10 5.3 85 0.0 0 0.0 4.9 17.7 96
15/02/2020 5:20 5.2 85 0.0 0 0.0 4.9 17.6 100
15/02/2020 5:30 5.1 85 0.0 0 0.0 4.8 17.2 104
15/02/2020 5:40 5.1 85 0.0 0 0.0 4.7 16.8 108
15/02/2020 5:50 5.2 85 0.0 0 0.0 4.1 14.7 111
15/02/2020 6:00 5.1 85 0.0 0 0.0 4.1 14.7 107
15/02/2020 6:10 5.3 84 0.0 0 0.0 4.1 14.8 109
15/02/2020 6:20 5.3 84 0.0 0 0.0 4.0 14.3 108
15/02/2020 6:30 4.7 88 0.0 0 0.0 3.9 14.0 109
15/02/2020 6:40 4.3 90 0.0 0 0.0 5.1 18.3 106
15/02/2020 6:50 4.1 92 0.0 0 0.0 4.4 15.9 108
15/02/2020 7:00 4.0 92 0.0 0 0.0 3.6 13.1 111
15/02/2020 7:10 3.9 92 0.0 0 0.0 5.1 18.2 106
15/02/2020 7:20 3.8 92 7.9 0 0.0 4.4 16.0 107
15/02/2020 7:30 3.7 91 32.4 356 0.0 4.3 15.6 106
15/02/2020 7:40 4.0 92 60.1 600 0.0 4.1 14.6 110
15/02/2020 7:50 4.2 91 86.0 600 0.0 4.2 15.0 109
15/02/2020 8:00 4.3 91 113.5 600 0.0 2.7 9.5 104
15/02/2020 8:10 4.5 90 142.2 600 0.0 3.0 10.7 103
15/02/2020 8:20 4.7 89 171.9 600 0.0 4.5 16.2 105
15/02/2020 8:30 4.8 87 200.2 600 0.0 4.6 16.4 112
15/02/2020 8:40 5.0 87 228.6 600 0.0 4.2 15.2 113
15/02/2020 8:50 5.4 86 256.9 600 0.0 4.2 15.0 111
15/02/2020 9:00 5.7 84 285.7 600 0.0 4.9 17.5 109
15/02/2020 9:10 6.0 82 314.1 600 0.0 5.2 18.8 108
15/02/2020 9:20 6.2 82 341.7 600 0.0 5.2 18.5 105
15/02/2020 9:30 6.7 79 368.9 600 0.0 5.1 18.3 104
15/02/2020 9:40 7.2 76 394.0 600 0.0 5.0 17.9 106
15/02/2020 9:50 7.8 74 419.4 600 0.0 4.8 17.3 112
15/02/2020 10:00 7.6 74 442.0 600 0.0 4.2 15.0 110
15/02/2020 10:10 8.1 73 464.2 600 0.0 4.3 15.6 111
15/02/2020 10:20 8.8 72 484.0 600 0.0 3.7 13.3 111
15/02/2020 10:30 9.1 70 502.8 600 0.0 2.4 8.8 119
15/02/2020 10:40 9.6 69 521.4 600 0.0 2.0 7.2 117
15/02/2020 10:50 10.1 68 539.3 600 0.0 1.7 6.0 116
15/02/2020 11:00 10.2 67 553.9 600 0.0 2.3 8.4 122
15/02/2020 11:10 10.6 66 566.0 600 0.0 2.3 8.2 129
15/02/2020 11:20 11.0 64 578.1 600 0.0 2.4 8.6 133
15/02/2020 11:30 11.4 62 587.6 600 0.0 2.0 7.3 130
15/02/2020 11:40 11.8 60 595.4 600 0.0 1.7 6.2 134
15/02/2020 11:50 12.7 58 600.0 600 0.0 1.5 5.5 146
15/02/2020 12:00 13.3 57 602.1 600 0.0 1.0 3.6 152
15/02/2020 12:10 14.3 59 603.4 600 0.0 1.3 4.8 180
15/02/2020 12:20 14.9 58 604.2 600 0.0 1.8 6.6 193
15/02/2020 12:30 15.6 56 600.0 600 0.0 1.3 4.6 203
15/02/2020 12:40 15.8 55 595.3 600 0.0 1.3 4.6 189
15/02/2020 12:50 16.1 55 594.6 600 0.0 1.5 5.2 182
15/02/2020 13:00 16.5 54 570.6 600 0.0 1.2 4.2 193
15/02/2020 13:10 16.8 55 560.1 600 0.0 1.4 5.0 171
15/02/2020 13:20 16.9 55 530.2 600 0.0 1.3 4.8 166
15/02/2020 13:30 17.3 55 565.6 600 0.0 1.4 5.0 182
15/02/2020 13:40 17.1 54 377.6 600 0.0 0.8 2.8 202
15/02/2020 13:50 17.2 54 500.0 600 0.0 0.8 2.8 290
15/02/2020 14:00 17.4 54 492.9 600 0.0 0.8 2.8 248
15/02/2020 14:10 17.3 54 451.3 600 0.0 0.7 2.6 278
15/02/2020 14:20 17.3 55 395.4 600 0.0 1.4 5.2 296
15/02/2020 14:30 17.3 55 289.1 586 0.0 1.9 6.8 301
15/02/2020 14:40 17.0 56 304.7 570 0.0 1.7 6.0 317
15/02/2020 14:50 17.2 56 272.1 492 0.0 1.3 4.6 293
15/02/2020 15:00 17.1 56 243.4 426 0.0 1.8 6.6 288
15/02/2020 15:10 16.9 57 218.0 350 0.0 1.4 5.2 261
15/02/2020 15:20 16.7 59 195.8 204 0.0 1.6 5.8 271
15/02/2020 15:30 16.6 60 173.8 0 0.0 0.8 2.9 267
15/02/2020 15:40 16.4 60 151.0 0 0.0 0.7 2.5 261
15/02/2020 15:50 16.3 61 132.6 0 0.0 0.4 1.3 234
15/02/2020 16:00 16.2 61 110.0 0 0.0 0.5 1.9 286
15/02/2020 16:10 16.2 61 92.9 0 0.0 0.2 0.8 227
15/02/2020 16:20 16.0 62 77.0 0 0.0 0.6 2.3 110
15/02/2020 16:30 15.7 63 67.2 0 0.0 0.5 1.7 108
15/02/2020 16:40 15.5 62 55.1 0 0.0 1.0 3.5 93
15/02/2020 16:50 15.3 63 43.7 0 0.0 0.9 3.4 105
15/02/2020 17:00 14.8 63 34.5 0 0.0 1.6 5.9 91
15/02/2020 17:10 14.8 63 25.2 0 0.0 1.1 4.1 95
15/02/2020 17:20 14.6 65 5.5 0 0.0 1.5 5.5 116
15/02/2020 17:30 14.3 66 0.0 0 0.0 1.6 5.9 100
15/02/2020 17:40 13.9 69 0.0 0 0.0 2.4 8.5 113
15/02/2020 17:50 13.5 68 0.0 0 0.0 2.6 9.5 111
15/02/2020 18:00 13.2 71 0.0 0 0.0 2.4 8.5 106
15/02/2020 18:10 12.9 72 0.0 0 0.0 2.5 8.9 96
15/02/2020 18:20 13.0 72 0.0 0 0.0 2.6 9.2 109
15/02/2020 18:30 12.4 73 0.0 0 0.0 2.7 9.6 110
15/02/2020 18:40 12.2 74 0.0 0 0.0 3.0 10.9 107
15/02/2020 18:50 12.1 73 0.0 0 0.0 2.6 9.4 109
15/02/2020 19:00 12.0 73 0.0 0 0.0 2.2 7.8 114
15/02/2020 19:10 11.6 75 0.0 0 0.0 2.6 9.2 117
15/02/2020 19:20 11.6 77 0.0 0 0.0 2.6 9.3 117
15/02/2020 19:30 11.4 77 0.0 0 0.0 2.6 9.5 115
15/02/2020 19:40 11.6 77 0.0 0 0.0 2.6 9.3 112
15/02/2020 19:50 11.3 77 0.0 0 0.0 2.9 10.5 103
15/02/2020 20:00 11.3 78 0.0 0 0.0 2.7 9.6 105
15/02/2020 20:10 10.9 78 0.0 0 0.0 3.0 10.8 105
15/02/2020 20:20 10.8 78 0.0 0 0.0 2.7 9.7 102
15/02/2020 20:30 10.5 79 0.0 0 0.0 3.1 11.1 108
15/02/2020 20:40 10.4 78 0.0 0 0.0 2.8 10.2 109
15/02/2020 20:50 10.1 81 0.0 0 0.0 2.8 9.9 118
15/02/2020 21:00 9.8 82 0.0 0 0.0 4.5 16.3 104
15/02/2020 21:10 10.0 80 0.0 0 0.0 5.0 18.1 106
15/02/2020 21:20 9.9 80 0.0 0 0.0 4.4 15.7 108
15/02/2020 21:30 9.6 81 0.0 0 0.0 3.1 11.1 108
15/02/2020 21:40 9.3 83 0.0 0 0.0 3.7 13.1 112
15/02/2020 21:50 9.3 83 0.0 0 0.0 4.0 14.5 111
15/02/2020 22:00 9.0 84 0.0 0 0.0 3.7 13.2 113
15/02/2020 22:10 9.0 83 0.0 0 0.0 3.9 14.2 112
15/02/2020 22:20 8.9 84 0.0 0 0.0 3.9 13.9 111
15/02/2020 22:30 8.9 83 0.0 0 0.0 3.7 13.3 107
15/02/2020 22:40 8.8 83 0.0 0 0.0 3.5 12.6 102
15/02/2020 22:50 8.5 84 0.0 0 0.0 4.7 16.9 107
15/02/2020 23:00 8.6 83 0.0 0 0.0 4.7 17.1 111
15/02/2020 23:10 8.2 84 0.0 0 0.0 4.0 14.3 112
15/02/2020 23:20 8.4 82 0.0 0 0.0 4.0 14.5 106
15/02/2020 23:30 8.9 78 0.0 0 0.0 4.0 14.3 100
15/02/2020 23:40 9.2 76 0.0 0 0.0 3.3 11.9 102
15/02/2020 23:50 8.9 78 0.0 0 0.0 3.9 14.0 102
Anterior Página 1 de 1 Siguiente

NOTA: Tipo de datos según el color:
   - Valores diarios o 10 minutos correctos
   - Valores diarios calculados a partir de un número de datos 10 minutos menor que 144 y mayor que 120, o de un número de datos semihorarios menor que 48 y mayor que 40 (caso de las estaciones de INTIA y del Ministerio)
   - Valores diez minutos estimados


Contacto        Enlaces        Aviso legal